createdAt,value
2018-02-16T00:02:04.542Z,18.80
2018-02-16T00:04:31.070Z,21.27
2018-02-16T00:06:57.819Z,22.02
2018-02-16T00:09:25.046Z,19.83
2018-02-16T00:11:51.424Z,23.23
2018-02-16T00:14:19.439Z,27.35
2018-02-16T00:16:46.779Z,21.67
2018-02-16T00:19:13.218Z,25.10
2018-02-16T00:21:39.666Z,19.77
2018-02-16T00:24:06.170Z,18.87
2018-02-16T00:26:33.200Z,25.65
2018-02-16T00:29:02.167Z,23.45
2018-02-16T00:31:28.720Z,22.52
2018-02-16T00:33:55.131Z,25.52
2018-02-16T00:36:21.311Z,35.17
2018-02-16T00:38:51.168Z,27.98
2018-02-16T00:44:21.105Z,27.40
2018-02-16T00:49:51.532Z,26.12
2018-02-16T00:52:20.975Z,24.73
2018-02-16T00:55:08.095Z,32.10
2018-02-16T00:57:34.760Z,28.52
2018-02-16T01:00:02.668Z,23.80
2018-02-16T01:02:29.439Z,21.60
2018-02-16T01:04:58.070Z,30.10
2018-02-16T01:07:24.918Z,29.00
2018-02-16T01:09:52.638Z,27.90
2018-02-16T01:12:19.120Z,31.25
2018-02-16T01:14:46.623Z,29.42
2018-02-16T01:17:13.763Z,28.30
2018-02-16T01:19:40.222Z,29.58
2018-02-16T01:22:06.873Z,28.73
2018-02-16T01:24:34.382Z,26.08
2018-02-16T01:27:01.044Z,27.17
2018-02-16T01:29:28.557Z,23.08
2018-02-16T01:31:55.064Z,26.37
2018-02-16T01:34:22.288Z,28.08
2018-02-16T01:36:53.450Z,27.30
2018-02-16T01:39:19.858Z,27.35
2018-02-16T01:41:46.321Z,27.40
2018-02-16T01:44:13.711Z,27.02
2018-02-16T01:46:40.858Z,28.10
2018-02-16T01:49:08.240Z,28.92
2018-02-16T01:51:34.721Z,24.67
2018-02-16T01:54:01.540Z,28.02
2018-02-16T01:56:28.201Z,29.12
2018-02-16T01:58:54.806Z,28.12
2018-02-16T02:01:21.302Z,23.62
2018-02-16T02:03:47.685Z,26.20
2018-02-16T02:06:14.157Z,27.92
2018-02-16T02:08:40.726Z,31.83
2018-02-16T02:11:07.296Z,28.77
2018-02-16T02:13:33.946Z,27.73
2018-02-16T02:16:01.907Z,25.77
2018-02-16T02:18:30.501Z,26.17
2018-02-16T02:20:56.917Z,26.58
2018-02-16T02:23:25.129Z,32.38
2018-02-16T02:25:51.629Z,25.83
2018-02-16T02:28:18.058Z,31.12
2018-02-16T02:30:44.529Z,24.35
2018-02-16T02:33:11.303Z,26.95
2018-02-16T02:35:37.879Z,26.77
2018-02-16T02:38:06.075Z,25.20
2018-02-16T02:40:32.431Z,27.00
2018-02-16T02:42:58.845Z,25.23
2018-02-16T02:45:26.815Z,30.73
2018-02-16T02:47:53.167Z,29.60
2018-02-16T02:50:19.498Z,28.98
2018-02-16T02:52:45.905Z,31.77
2018-02-16T02:55:12.286Z,28.02
2018-02-16T02:57:38.650Z,29.37
2018-02-16T03:00:06.000Z,29.95
2018-02-16T03:02:32.342Z,28.55
2018-02-16T03:04:58.700Z,29.37
2018-02-16T03:07:25.170Z,24.98
2018-02-16T03:09:51.398Z,29.08
2018-02-16T03:12:17.756Z,34.83
2018-02-16T03:14:44.986Z,30.02
2018-02-16T03:17:12.615Z,31.98
2018-02-16T03:19:45.454Z,26.25
2018-02-16T03:22:12.287Z,41.60
2018-02-16T03:24:38.725Z,28.42
2018-02-16T03:27:05.584Z,25.73
2018-02-16T03:29:33.888Z,30.52
2018-02-16T03:32:00.489Z,27.10
2018-02-16T03:34:28.146Z,30.00
2018-02-16T03:36:54.698Z,34.88
2018-02-16T03:39:20.938Z,27.30
2018-02-16T03:41:47.422Z,31.25
2018-02-16T03:44:13.802Z,28.55
2018-02-16T03:46:40.183Z,25.27
2018-02-16T03:49:08.211Z,27.87
2018-02-16T03:51:34.650Z,25.75
2018-02-16T03:54:01.193Z,23.45
2018-02-16T03:56:28.623Z,28.87
2018-02-16T03:58:55.255Z,27.37
2018-02-16T04:01:21.676Z,27.23
2018-02-16T04:03:48.026Z,24.33
2018-02-16T04:06:15.268Z,25.58
2018-02-16T04:08:43.506Z,26.42
2018-02-16T04:11:17.291Z,27.15
2018-02-16T04:13:47.638Z,27.92
2018-02-16T04:16:15.898Z,28.85
2018-02-16T04:18:44.494Z,26.83
2018-02-16T04:21:12.582Z,31.62
2018-02-16T04:23:40.192Z,25.35
2018-02-16T04:26:07.401Z,24.87
2018-02-16T04:28:37.747Z,30.83
2018-02-16T04:31:04.243Z,27.17
2018-02-16T04:33:30.627Z,32.28
2018-02-16T04:35:57.224Z,24.98
2018-02-16T04:38:25.541Z,26.58
2018-02-16T04:40:55.108Z,24.30
2018-02-16T04:43:21.447Z,25.58
2018-02-16T04:45:48.664Z,27.77
2018-02-16T04:48:15.926Z,24.98
2018-02-16T04:50:42.927Z,29.52
2018-02-16T04:53:09.330Z,30.12
2018-02-16T04:55:36.748Z,27.77
2018-02-16T04:58:03.312Z,24.02
2018-02-16T05:00:30.822Z,27.87
2018-02-16T05:02:59.369Z,27.52
2018-02-16T05:05:25.637Z,29.70
2018-02-16T05:07:51.911Z,29.63
2018-02-16T05:10:18.216Z,26.02
2018-02-16T05:12:45.303Z,26.37
2018-02-16T05:15:12.435Z,27.95
2018-02-16T05:17:38.913Z,29.30
2018-02-16T05:20:05.256Z,25.60
2018-02-16T05:22:33.927Z,27.40
2018-02-16T05:25:01.407Z,27.13
2018-02-16T05:30:14.387Z,24.55
2018-02-16T05:32:46.513Z,24.75
2018-02-16T05:35:13.407Z,21.10
2018-02-16T05:37:41.029Z,26.23
2018-02-16T05:40:10.010Z,35.65
2018-02-16T05:42:37.576Z,20.17
2018-02-16T05:45:04.802Z,19.60
2018-02-16T05:47:34.121Z,26.45
2018-02-16T05:50:01.692Z,21.33
2018-02-16T05:52:29.894Z,23.67
2018-02-16T05:54:56.825Z,32.95
2018-02-16T05:57:27.795Z,24.23
2018-02-16T05:59:55.364Z,31.20
2018-02-16T06:02:22.795Z,27.02
2018-02-16T06:04:50.096Z,27.27
2018-02-16T06:07:16.535Z,31.05
2018-02-16T06:09:45.719Z,37.17
2018-02-16T06:12:12.378Z,23.38
2018-02-16T06:14:39.008Z,24.77
2018-02-16T06:17:05.500Z,25.50
2018-02-16T06:19:33.271Z,32.20
2018-02-16T06:22:00.914Z,31.35
2018-02-16T06:24:27.457Z,31.65
2018-02-16T06:26:54.366Z,36.80
2018-02-16T06:29:21.024Z,23.65
2018-02-16T06:31:47.428Z,25.17
2018-02-16T06:34:16.217Z,27.73
2018-02-16T06:36:43.367Z,33.22
2018-02-16T06:39:09.934Z,33.38
2018-02-16T06:41:37.346Z,41.72
2018-02-16T06:44:04.679Z,29.45
2018-02-16T06:46:31.466Z,35.53
2018-02-16T06:48:58.131Z,37.17
2018-02-16T06:51:24.751Z,40.47
2018-02-16T06:53:51.258Z,33.85
2018-02-16T06:56:17.611Z,27.27
2018-02-16T06:58:44.065Z,32.88
2018-02-16T07:01:10.692Z,30.70
2018-02-16T07:03:37.809Z,35.70
2018-02-16T07:06:04.458Z,30.25
2018-02-16T07:08:31.955Z,31.70
2018-02-16T07:10:59.555Z,34.70
2018-02-16T07:13:26.410Z,27.50
2018-02-16T07:15:53.022Z,34.70
2018-02-16T07:18:20.419Z,29.63
2018-02-16T07:20:46.845Z,39.15
2018-02-16T07:23:14.317Z,29.50
2018-02-16T07:25:42.636Z,37.85
2018-02-16T07:28:09.388Z,34.35
2018-02-16T07:30:37.210Z,40.17
2018-02-16T07:33:03.794Z,35.95
2018-02-16T07:35:33.578Z,33.53
2018-02-16T07:38:02.762Z,27.30
2018-02-16T07:40:41.394Z,32.58
2018-02-16T07:43:17.954Z,26.65
2018-02-16T07:45:44.364Z,45.40
2018-02-16T07:48:12.466Z,26.52
2018-02-16T07:50:39.763Z,30.33
2018-02-16T07:53:07.015Z,33.60
2018-02-16T07:55:36.055Z,34.92
2018-02-16T07:58:04.525Z,32.40
2018-02-16T08:00:30.715Z,34.15
2018-02-16T08:02:58.409Z,34.72
2018-02-16T08:08:24.743Z,27.95
2018-02-16T08:13:48.811Z,24.77
2018-02-16T08:16:15.551Z,29.02
2018-02-16T08:18:44.351Z,33.47
2018-02-16T08:21:11.083Z,32.50
2018-02-16T08:23:39.057Z,26.60
2018-02-16T08:26:15.904Z,31.42
2018-02-16T08:28:46.574Z,35.05
2018-02-16T08:31:13.554Z,34.45
2018-02-16T08:33:41.738Z,32.92
2018-02-16T08:36:09.264Z,33.70
2018-02-16T08:38:36.473Z,30.50
2018-02-16T08:41:04.037Z,29.67
2018-02-16T08:43:31.994Z,30.20
2018-02-16T08:45:59.699Z,34.95
2018-02-16T08:48:26.629Z,27.45
2018-02-16T08:50:55.888Z,29.17
2018-02-16T08:53:22.859Z,30.30
2018-02-16T08:55:56.829Z,29.67
2018-02-16T08:58:26.264Z,31.20
2018-02-16T09:03:46.521Z,31.35
2018-02-16T09:06:14.645Z,28.50
2018-02-16T09:08:44.814Z,27.80
2018-02-16T09:11:18.954Z,26.12
2018-02-16T09:13:46.357Z,25.50
2018-02-16T09:16:13.657Z,29.77
2018-02-16T09:18:42.005Z,26.95
2018-02-16T09:21:11.315Z,27.90
2018-02-16T09:23:42.650Z,20.27
2018-02-16T09:26:09.878Z,25.05
2018-02-16T09:28:36.419Z,25.62
2018-02-16T09:31:21.512Z,21.45
2018-02-16T09:33:54.432Z,24.05
2018-02-16T09:36:21.094Z,23.55
2018-02-16T09:38:48.642Z,33.83
2018-02-16T09:41:15.292Z,22.85
2018-02-16T09:43:46.432Z,24.37
2018-02-16T09:46:14.296Z,28.52
2018-02-16T09:48:40.786Z,27.90
2018-02-16T09:51:07.377Z,20.17
2018-02-16T09:53:34.016Z,31.67
2018-02-16T09:58:40.688Z,22.00
2018-02-16T10:01:07.317Z,21.60
2018-02-16T10:03:33.877Z,23.95
2018-02-16T10:06:00.409Z,22.02
2018-02-16T10:08:27.027Z,24.00
2018-02-16T10:10:57.683Z,27.98
2018-02-16T10:13:25.034Z,29.63
2018-02-16T10:15:51.480Z,19.62
2018-02-16T10:18:17.811Z,22.80
2018-02-16T10:20:45.183Z,35.80
2018-02-16T10:23:11.814Z,19.23
2018-02-16T10:25:38.322Z,25.58
2018-02-16T10:28:09.295Z,22.10
2018-02-16T10:30:38.696Z,23.33
2018-02-16T10:33:05.566Z,27.80
2018-02-16T10:35:34.106Z,24.15
2018-02-16T10:38:01.957Z,26.45
2018-02-16T10:40:29.126Z,19.90
2018-02-16T10:43:02.945Z,24.70
2018-02-16T10:45:31.379Z,20.52
2018-02-16T10:47:58.198Z,24.20
2018-02-16T10:50:25.938Z,20.42
2018-02-16T10:52:52.442Z,29.40
2018-02-16T10:55:18.917Z,25.75
2018-02-16T10:57:48.910Z,21.92
2018-02-16T11:00:16.196Z,19.25
2018-02-16T11:02:49.191Z,18.52
2018-02-16T11:05:16.731Z,24.25
2018-02-16T11:07:54.066Z,20.15
2018-02-16T11:10:20.529Z,26.27
2018-02-16T11:12:46.969Z,24.42
2018-02-16T11:15:14.135Z,19.05
2018-02-16T11:17:40.843Z,24.25
2018-02-16T11:20:08.493Z,28.00
2018-02-16T11:22:36.083Z,23.65
2018-02-16T11:25:08.293Z,27.83
2018-02-16T11:27:34.965Z,23.20
2018-02-16T11:30:04.163Z,27.37
2018-02-16T11:32:31.155Z,22.30
2018-02-16T11:34:57.978Z,20.50
2018-02-16T11:37:33.287Z,17.42
2018-02-16T11:40:00.099Z,23.05
2018-02-16T11:42:26.684Z,21.15
2018-02-16T11:44:54.591Z,23.80
2018-02-16T11:47:21.423Z,19.98
2018-02-16T11:49:48.636Z,14.93
2018-02-16T11:52:19.086Z,20.23
2018-02-16T11:54:45.731Z,21.87
2018-02-16T11:57:12.354Z,19.30
2018-02-16T11:59:39.103Z,17.45
2018-02-16T12:02:07.255Z,19.77
2018-02-16T12:04:35.347Z,16.85
2018-02-16T12:07:05.745Z,18.10
2018-02-16T12:09:33.286Z,21.15
2018-02-16T12:12:01.440Z,25.12
2018-02-16T12:14:30.290Z,18.75
2018-02-16T12:16:58.691Z,19.23
2018-02-16T12:19:26.344Z,20.85
2018-02-16T12:21:57.379Z,21.00
2018-02-16T12:24:24.943Z,16.12
2018-02-16T12:26:51.430Z,15.55
2018-02-16T12:29:17.890Z,14.25
2018-02-16T12:31:44.634Z,14.02
2018-02-16T12:34:13.431Z,11.70
2018-02-16T12:36:43.304Z,14.77
2018-02-16T12:39:11.735Z,13.30
2018-02-16T12:41:39.175Z,11.73
2018-02-16T12:44:07.668Z,17.02
2018-02-16T12:46:34.437Z,14.87
2018-02-16T12:49:05.550Z,13.30
2018-02-16T12:51:33.059Z,9.23
2018-02-16T12:54:01.048Z,13.40
2018-02-16T12:56:27.921Z,12.00
2018-02-16T12:58:57.681Z,11.27
2018-02-16T13:01:30.491Z,10.93
2018-02-16T13:03:57.403Z,11.00
2018-02-16T13:06:24.863Z,8.27
2018-02-16T13:08:51.350Z,6.68
2018-02-16T13:11:17.845Z,8.27
2018-02-16T13:13:44.525Z,10.98
2018-02-16T13:16:12.035Z,13.43
2018-02-16T13:18:45.524Z,11.43
2018-02-16T13:21:14.306Z,10.25
2018-02-16T13:23:47.527Z,11.50
2018-02-16T13:26:16.397Z,12.37
2018-02-16T13:28:46.688Z,6.15
2018-02-16T13:31:16.817Z,10.00
2018-02-16T13:33:50.307Z,8.32
2018-02-16T13:36:16.633Z,12.00
2018-02-16T13:38:50.311Z,13.43
2018-02-16T13:47:36.382Z,10.65
2018-02-16T13:50:06.285Z,8.50
2018-02-16T13:52:48.545Z,10.43
2018-02-16T13:58:26.360Z,7.95
2018-02-16T14:03:54.989Z,14.80
2018-02-16T14:09:38.389Z,7.87
2018-02-16T14:12:07.941Z,10.52
2018-02-16T14:14:49.450Z,11.32
2018-02-16T14:26:04.183Z,10.73
2018-02-16T14:28:44.802Z,7.65
2018-02-16T14:37:35.657Z,14.10
2018-02-16T14:40:18.089Z,8.05
2018-02-16T15:07:35.445Z,13.62
2018-02-16T15:10:04.747Z,10.38
2018-02-16T15:12:37.306Z,12.05
2018-02-16T15:15:05.549Z,11.48
2018-02-16T15:20:53.626Z,13.80
2018-02-16T15:26:31.161Z,9.68
2018-02-16T15:32:08.600Z,16.37
2018-02-16T15:34:46.802Z,20.88
2018-02-16T15:37:16.054Z,8.98
2018-02-16T15:39:43.766Z,7.03
2018-02-16T15:42:17.075Z,9.75
2018-02-16T15:44:44.438Z,11.65
2018-02-16T15:47:18.680Z,12.57
2018-02-16T15:49:46.728Z,7.15
2018-02-16T15:52:16.447Z,11.05
2018-02-16T15:54:43.008Z,13.88
2018-02-16T15:57:17.781Z,12.05
2018-02-16T15:59:46.132Z,11.02
2018-02-16T16:02:13.042Z,12.10
2018-02-16T16:04:40.426Z,10.45
2018-02-16T16:07:11.022Z,10.38
2018-02-16T16:09:39.876Z,19.17
2018-02-16T16:12:09.995Z,24.92
2018-02-16T16:14:38.015Z,17.98
2018-02-16T16:17:04.568Z,16.37
2018-02-16T16:19:31.448Z,19.23
2018-02-16T16:21:58.446Z,13.27
2018-02-16T16:24:25.108Z,10.90
2018-02-16T16:26:51.580Z,10.80
2018-02-16T16:29:17.900Z,13.57
2018-02-16T16:31:45.329Z,12.43
2018-02-16T16:34:12.040Z,11.63
2018-02-16T16:36:38.580Z,10.55
2018-02-16T16:39:04.913Z,50.58
2018-02-16T16:41:31.345Z,18.90
2018-02-16T16:43:57.890Z,12.27
2018-02-16T16:46:24.357Z,11.25
2018-02-16T16:48:50.784Z,8.13
2018-02-16T16:51:17.353Z,9.50
2018-02-16T16:53:43.930Z,9.07
2018-02-16T16:56:10.342Z,10.32
2018-02-16T16:58:36.806Z,8.70
2018-02-16T17:01:03.283Z,9.13
2018-02-16T17:03:29.951Z,9.05
2018-02-16T17:05:56.542Z,9.43
2018-02-16T17:08:24.170Z,10.05
2018-02-16T17:10:50.601Z,8.80
2018-02-16T17:13:17.442Z,8.23
2018-02-16T17:15:43.851Z,13.05
2018-02-16T17:18:10.318Z,7.97
2018-02-16T17:20:38.095Z,12.02
2018-02-16T17:23:04.724Z,8.80
2018-02-16T17:25:32.713Z,11.85
2018-02-16T17:27:59.831Z,13.30
2018-02-16T17:30:26.176Z,12.80
2018-02-16T17:32:52.674Z,13.70
2018-02-16T17:35:19.082Z,9.18
2018-02-16T17:37:46.858Z,12.10
2018-02-16T17:40:13.291Z,9.02
2018-02-16T17:42:39.918Z,13.32
2018-02-16T17:45:07.140Z,14.45
2018-02-16T17:47:33.665Z,14.18
2018-02-16T17:50:00.079Z,15.35
2018-02-16T17:52:26.470Z,13.60
2018-02-16T17:54:53.574Z,10.90
2018-02-16T17:57:19.899Z,12.80
2018-02-16T17:59:46.422Z,16.65
2018-02-16T18:02:12.754Z,17.75
2018-02-16T18:04:39.901Z,14.90
2018-02-16T18:07:06.381Z,15.30
2018-02-16T18:09:32.874Z,14.75
2018-02-16T18:11:59.478Z,13.88
2018-02-16T18:14:25.874Z,15.88
2018-02-16T18:16:52.426Z,15.48
2018-02-16T18:19:20.863Z,18.80
2018-02-16T18:21:49.520Z,16.52
2018-02-16T18:24:21.778Z,13.57
2018-02-16T18:26:48.190Z,19.35
2018-02-16T18:29:14.589Z,23.23
2018-02-16T18:31:41.039Z,18.75
2018-02-16T18:34:07.338Z,17.58
2018-02-16T18:36:33.565Z,16.42
2018-02-16T18:38:59.801Z,20.67
2018-02-16T18:41:27.491Z,13.35
2018-02-16T18:43:53.770Z,14.02
2018-02-16T18:46:19.914Z,15.38
2018-02-16T18:48:46.167Z,14.70
2018-02-16T18:51:12.322Z,14.20
2018-02-16T18:53:39.267Z,15.55
2018-02-16T18:56:05.535Z,15.35
2018-02-16T18:58:31.736Z,16.08
2018-02-16T19:00:57.887Z,18.27
2018-02-16T19:03:24.174Z,17.40
2018-02-16T19:05:50.386Z,15.25
2018-02-16T19:08:17.381Z,21.50
2018-02-16T19:10:43.567Z,18.55
2018-02-16T19:13:09.726Z,21.95
2018-02-16T19:15:37.288Z,17.90
2018-02-16T19:18:04.174Z,16.00
2018-02-16T19:20:31.508Z,16.15
2018-02-16T19:22:57.672Z,16.98
2018-02-16T19:25:23.882Z,16.10
2018-02-16T19:27:50.120Z,13.20
2018-02-16T19:30:16.794Z,17.85
2018-02-16T19:32:42.953Z,20.33
2018-02-16T19:35:09.104Z,17.30
2018-02-16T19:37:35.277Z,16.70
2018-02-16T19:40:01.982Z,14.82
2018-02-16T19:42:28.233Z,19.67
2018-02-16T19:44:54.546Z,15.82
2018-02-16T19:47:21.178Z,21.83
2018-02-16T19:49:48.642Z,17.20
2018-02-16T19:52:14.761Z,17.23
2018-02-16T19:54:42.063Z,18.27
2018-02-16T19:57:08.332Z,21.08
2018-02-16T19:59:35.100Z,19.98
2018-02-16T20:02:01.438Z,21.10
2018-02-16T20:04:27.662Z,25.10
2018-02-16T20:06:54.212Z,22.08
2018-02-16T20:09:23.824Z,27.20
2018-02-16T20:11:52.789Z,24.30
2018-02-16T20:14:18.939Z,31.92
2018-02-16T20:16:45.861Z,25.05
2018-02-16T20:19:12.391Z,31.30
2018-02-16T20:21:38.904Z,28.20
2018-02-16T20:24:05.079Z,29.98
2018-02-16T20:26:31.303Z,30.62
2018-02-16T20:28:57.588Z,29.40
2018-02-16T20:31:24.404Z,27.77
2018-02-16T20:33:50.950Z,36.50
2018-02-16T20:36:17.139Z,29.48
2018-02-16T20:38:43.289Z,24.02
2018-02-16T20:41:09.804Z,31.12
2018-02-16T20:43:36.263Z,28.27
2018-02-16T20:46:04.189Z,33.28
2018-02-16T20:48:30.742Z,23.38
2018-02-16T20:50:57.074Z,26.27
2018-02-16T20:53:23.521Z,32.75
2018-02-16T20:55:51.145Z,28.30
2018-02-16T20:58:17.267Z,33.65
2018-02-16T21:00:43.444Z,24.95
2018-02-16T21:03:09.788Z,23.30
2018-02-16T21:05:36.149Z,21.20
2018-02-16T21:08:02.494Z,25.60
2018-02-16T21:10:28.861Z,25.65
2018-02-16T21:12:55.209Z,20.35
2018-02-16T21:15:22.409Z,27.15
2018-02-16T21:17:48.683Z,23.75
2018-02-16T21:20:15.653Z,24.90
2018-02-16T21:22:41.902Z,26.60
2018-02-16T21:25:08.249Z,26.33
2018-02-16T21:27:34.671Z,24.90
2018-02-16T21:30:01.087Z,27.20
2018-02-16T21:32:27.496Z,27.85
2018-02-16T21:34:53.885Z,30.65
2018-02-16T21:37:20.057Z,24.08
2018-02-16T21:39:46.486Z,27.05
2018-02-16T21:42:12.855Z,24.50
2018-02-16T21:44:38.977Z,25.10
2018-02-16T21:47:05.157Z,23.45
2018-02-16T21:49:31.481Z,24.08
2018-02-16T21:51:58.583Z,24.58
2018-02-16T21:54:24.780Z,25.35
2018-02-16T21:56:50.939Z,21.10
2018-02-16T21:59:17.422Z,21.45
2018-02-16T22:01:43.829Z,25.23
2018-02-16T22:04:10.160Z,24.15
2018-02-16T22:06:37.275Z,24.15
2018-02-16T22:09:03.606Z,25.55
2018-02-16T22:11:29.962Z,25.08
2018-02-16T22:13:57.030Z,19.08
2018-02-16T22:16:23.173Z,21.58
2018-02-16T22:18:49.335Z,18.00
2018-02-16T22:21:15.479Z,16.90
2018-02-16T22:23:42.406Z,18.20
2018-02-16T22:26:08.603Z,28.52
2018-02-16T22:28:35.845Z,20.35
2018-02-16T22:31:02.705Z,17.80
2018-02-16T22:33:28.957Z,21.52
2018-02-16T22:35:55.282Z,17.67
2018-02-16T22:38:22.290Z,17.40
2018-02-16T22:40:48.720Z,18.85
2018-02-16T22:43:14.942Z,21.33
2018-02-16T22:45:41.066Z,17.23
2018-02-16T22:48:09.052Z,18.35
2018-02-16T22:50:36.567Z,21.05
2018-02-16T22:53:02.730Z,18.08
2018-02-16T22:55:29.898Z,20.70
2018-02-16T22:57:56.137Z,19.37
2018-02-16T23:00:22.299Z,21.27
2018-02-16T23:02:49.203Z,18.33
2018-02-16T23:05:15.425Z,15.73
2018-02-16T23:07:41.580Z,19.62
2018-02-16T23:10:07.789Z,19.02
2018-02-16T23:12:33.974Z,21.37
2018-02-16T23:15:00.120Z,18.17
2018-02-16T23:17:26.296Z,19.92
2018-02-16T23:19:52.442Z,17.80
2018-02-16T23:22:18.631Z,20.65
2018-02-16T23:24:44.788Z,19.67
2018-02-16T23:27:11.050Z,18.87
2018-02-16T23:29:37.281Z,20.40
2018-02-16T23:32:03.458Z,18.83
2018-02-16T23:34:29.687Z,21.83
2018-02-16T23:36:55.853Z,18.92
2018-02-16T23:39:22.094Z,16.73
2018-02-16T23:41:48.228Z,19.30
2018-02-16T23:44:14.407Z,17.80
2018-02-16T23:46:42.468Z,16.83
2018-02-16T23:49:08.670Z,18.58
2018-02-16T23:51:35.638Z,17.55
2018-02-16T23:54:01.911Z,18.00
2018-02-16T23:56:28.071Z,17.50
2018-02-16T23:58:54.338Z,15.40
